sensor_id;sensor_type;location;lat;lon;timestamp;P1;durP1;ratioP1;P2;durP2;ratioP2
85318;SDS011;75722;49.004;12.120;2024-03-23T00:55:41;44.08;;;17.00;;
85318;SDS011;75722;49.004;12.120;2024-03-23T00:58:07;50.05;;;17.63;;
85318;SDS011;75722;49.004;12.120;2024-03-23T01:00:32;48.90;;;18.02;;
85318;SDS011;75722;49.004;12.120;2024-03-23T01:02:58;46.33;;;17.25;;
85318;SDS011;75722;49.004;12.120;2024-03-23T01:05:23;49.17;;;17.25;;
85318;SDS011;75722;49.004;12.120;2024-03-23T01:07:48;59.05;;;19.25;;
85318;SDS011;75722;49.004;12.120;2024-03-23T01:10:14;50.27;;;19.07;;
85318;SDS011;75722;49.004;12.120;2024-03-23T01:12:39;58.47;;;19.83;;
85318;SDS011;75722;49.004;12.120;2024-03-23T01:15:04;58.27;;;20.50;;
85318;SDS011;75722;49.004;12.120;2024-03-23T01:17:30;54.50;;;18.15;;
85318;SDS011;75722;49.004;12.120;2024-03-23T01:19:55;54.27;;;19.40;;
85318;SDS011;75722;49.004;12.120;2024-03-23T01:22:21;56.10;;;19.23;;
85318;SDS011;75722;49.004;12.120;2024-03-23T01:24:46;51.78;;;18.60;;
85318;SDS011;75722;49.004;12.120;2024-03-23T01:27:11;50.38;;;18.75;;
85318;SDS011;75722;49.004;12.120;2024-03-23T01:29:37;52.33;;;18.67;;
85318;SDS011;75722;49.004;12.120;2024-03-23T01:32:02;55.00;;;19.07;;
85318;SDS011;75722;49.004;12.120;2024-03-23T01:34:27;49.25;;;17.80;;
85318;SDS011;75722;49.004;12.120;2024-03-23T01:36:53;49.75;;;18.33;;
85318;SDS011;75722;49.004;12.120;2024-03-23T01:39:18;51.65;;;18.50;;
85318;SDS011;75722;49.004;12.120;2024-03-23T01:41:44;54.43;;;18.13;;
85318;SDS011;75722;49.004;12.120;2024-03-23T01:44:09;54.60;;;19.40;;
85318;SDS011;75722;49.004;12.120;2024-03-23T01:46:35;57.10;;;20.15;;
85318;SDS011;75722;49.004;12.120;2024-03-23T01:49:02;62.13;;;19.88;;
85318;SDS011;75722;49.004;12.120;2024-03-23T01:51:28;58.40;;;19.30;;
85318;SDS011;75722;49.004;12.120;2024-03-23T01:53:54;51.50;;;19.05;;
85318;SDS011;75722;49.004;12.120;2024-03-23T01:56:21;57.70;;;19.40;;
85318;SDS011;75722;49.004;12.120;2024-03-23T01:58:47;57.88;;;20.33;;
85318;SDS011;75722;49.004;12.120;2024-03-23T02:01:12;64.47;;;20.15;;
85318;SDS011;75722;49.004;12.120;2024-03-23T02:03:37;54.45;;;20.40;;
85318;SDS011;75722;49.004;12.120;2024-03-23T02:06:03;55.08;;;20.42;;
85318;SDS011;75722;49.004;12.120;2024-03-23T02:08:29;60.60;;;20.63;;
85318;SDS011;75722;49.004;12.120;2024-03-23T02:10:56;55.47;;;19.50;;
85318;SDS011;75722;49.004;12.120;2024-03-23T02:13:21;63.45;;;20.08;;
85318;SDS011;75722;49.004;12.120;2024-03-23T02:15:46;52.03;;;18.37;;
85318;SDS011;75722;49.004;12.120;2024-03-23T02:18:12;51.00;;;19.33;;
85318;SDS011;75722;49.004;12.120;2024-03-23T02:20:38;51.97;;;18.08;;
85318;SDS011;75722;49.004;12.120;2024-03-23T02:23:04;53.50;;;19.42;;
85318;SDS011;75722;49.004;12.120;2024-03-23T02:25:33;58.22;;;20.20;;
85318;SDS011;75722;49.004;12.120;2024-03-23T02:27:59;55.65;;;20.00;;
85318;SDS011;75722;49.004;12.120;2024-03-23T02:30:25;62.10;;;20.42;;
85318;SDS011;75722;49.004;12.120;2024-03-23T02:32:51;59.40;;;21.00;;
85318;SDS011;75722;49.004;12.120;2024-03-23T02:35:16;59.78;;;20.42;;
85318;SDS011;75722;49.004;12.120;2024-03-23T02:37:41;58.47;;;20.35;;
85318;SDS011;75722;49.004;12.120;2024-03-23T02:40:07;56.47;;;17.80;;
85318;SDS011;75722;49.004;12.120;2024-03-23T02:42:32;66.82;;;20.35;;
85318;SDS011;75722;49.004;12.120;2024-03-23T02:44:58;58.70;;;20.50;;
85318;SDS011;75722;49.004;12.120;2024-03-23T02:47:23;58.42;;;20.10;;
85318;SDS011;75722;49.004;12.120;2024-03-23T02:49:49;64.18;;;21.48;;
85318;SDS011;75722;49.004;12.120;2024-03-23T02:52:14;62.22;;;20.35;;
85318;SDS011;75722;49.004;12.120;2024-03-23T02:54:40;56.20;;;18.65;;
85318;SDS011;75722;49.004;12.120;2024-03-23T02:57:07;59.53;;;21.17;;
85318;SDS011;75722;49.004;12.120;2024-03-23T02:59:32;62.70;;;21.20;;
85318;SDS011;75722;49.004;12.120;2024-03-23T03:01:57;63.97;;;21.17;;
85318;SDS011;75722;49.004;12.120;2024-03-23T03:04:24;69.00;;;21.13;;
85318;SDS011;75722;49.004;12.120;2024-03-23T03:06:50;63.63;;;22.05;;
85318;SDS011;75722;49.004;12.120;2024-03-23T03:09:15;65.85;;;21.83;;
85318;SDS011;75722;49.004;12.120;2024-03-23T03:11:41;71.47;;;22.30;;
85318;SDS011;75722;49.004;12.120;2024-03-23T03:14:06;67.38;;;23.00;;
85318;SDS011;75722;49.004;12.120;2024-03-23T03:16:32;66.18;;;21.67;;
85318;SDS011;75722;49.004;12.120;2024-03-23T03:18:58;65.82;;;23.13;;
85318;SDS011;75722;49.004;12.120;2024-03-23T03:21:23;68.88;;;22.98;;
85318;SDS011;75722;49.004;12.120;2024-03-23T03:23:49;72.00;;;23.20;;
85318;SDS011;75722;49.004;12.120;2024-03-23T03:26:15;63.88;;;23.65;;
85318;SDS011;75722;49.004;12.120;2024-03-23T03:28:42;69.68;;;22.90;;
85318;SDS011;75722;49.004;12.120;2024-03-23T03:31:08;67.25;;;23.83;;
85318;SDS011;75722;49.004;12.120;2024-03-23T03:33:33;63.85;;;22.90;;
85318;SDS011;75722;49.004;12.120;2024-03-23T03:35:59;59.37;;;21.43;;
85318;SDS011;75722;49.004;12.120;2024-03-23T03:38:24;64.53;;;21.87;;
85318;SDS011;75722;49.004;12.120;2024-03-23T03:40:49;59.30;;;20.60;;
85318;SDS011;75722;49.004;12.120;2024-03-23T03:43:15;63.10;;;21.90;;
85318;SDS011;75722;49.004;12.120;2024-03-23T03:45:40;70.10;;;22.53;;
85318;SDS011;75722;49.004;12.120;2024-03-23T03:48:05;68.53;;;21.43;;
85318;SDS011;75722;49.004;12.120;2024-03-23T03:50:31;66.10;;;21.92;;
85318;SDS011;75722;49.004;12.120;2024-03-23T03:52:56;64.57;;;21.83;;
85318;SDS011;75722;49.004;12.120;2024-03-23T03:55:22;71.90;;;21.20;;
85318;SDS011;75722;49.004;12.120;2024-03-23T03:57:47;63.60;;;24.13;;
85318;SDS011;75722;49.004;12.120;2024-03-23T04:00:12;77.17;;;23.87;;
85318;SDS011;75722;49.004;12.120;2024-03-23T04:02:38;66.45;;;22.75;;
85318;SDS011;75722;49.004;12.120;2024-03-23T04:05:04;62.50;;;22.17;;
85318;SDS011;75722;49.004;12.120;2024-03-23T04:07:30;66.25;;;22.65;;
85318;SDS011;75722;49.004;12.120;2024-03-23T04:09:55;76.13;;;23.80;;
85318;SDS011;75722;49.004;12.120;2024-03-23T04:12:20;60.00;;;21.63;;
85318;SDS011;75722;49.004;12.120;2024-03-23T04:14:46;61.25;;;21.83;;
85318;SDS011;75722;49.004;12.120;2024-03-23T04:17:11;58.97;;;21.25;;
85318;SDS011;75722;49.004;12.120;2024-03-23T04:19:37;69.50;;;22.17;;
85318;SDS011;75722;49.004;12.120;2024-03-23T04:22:02;70.22;;;21.48;;
85318;SDS011;75722;49.004;12.120;2024-03-23T04:24:28;75.72;;;23.13;;
85318;SDS011;75722;49.004;12.120;2024-03-23T04:26:54;50.22;;;19.55;;
85318;SDS011;75722;49.004;12.120;2024-03-23T04:29:19;62.67;;;20.70;;
85318;SDS011;75722;49.004;12.120;2024-03-23T04:31:45;51.28;;;19.30;;
85318;SDS011;75722;49.004;12.120;2024-03-23T04:34:10;51.97;;;18.58;;
85318;SDS011;75722;49.004;12.120;2024-03-23T04:36:36;45.42;;;18.65;;
85318;SDS011;75722;49.004;12.120;2024-03-23T04:39:01;47.75;;;18.10;;
85318;SDS011;75722;49.004;12.120;2024-03-23T04:41:27;55.35;;;18.77;;
85318;SDS011;75722;49.004;12.120;2024-03-23T04:43:52;48.47;;;17.75;;
85318;SDS011;75722;49.004;12.120;2024-03-23T04:46:17;47.92;;;18.80;;
85318;SDS011;75722;49.004;12.120;2024-03-23T04:48:43;53.08;;;18.73;;
85318;SDS011;75722;49.004;12.120;2024-03-23T04:51:20;47.58;;;18.05;;
85318;SDS011;75722;49.004;12.120;2024-03-23T04:53:46;50.80;;;18.95;;
85318;SDS011;75722;49.004;12.120;2024-03-23T04:56:13;45.55;;;18.50;;
85318;SDS011;75722;49.004;12.120;2024-03-23T04:58:38;49.90;;;17.92;;
85318;SDS011;75722;49.004;12.120;2024-03-23T05:01:04;42.13;;;17.60;;
85318;SDS011;75722;49.004;12.120;2024-03-23T05:03:29;40.33;;;16.40;;
85318;SDS011;75722;49.004;12.120;2024-03-23T05:05:54;45.30;;;17.88;;
85318;SDS011;75722;49.004;12.120;2024-03-23T05:08:19;41.67;;;15.13;;
85318;SDS011;75722;49.004;12.120;2024-03-23T05:10:45;38.47;;;15.70;;
85318;SDS011;75722;49.004;12.120;2024-03-23T05:13:11;37.45;;;15.20;;
85318;SDS011;75722;49.004;12.120;2024-03-23T05:15:36;44.13;;;16.25;;
85318;SDS011;75722;49.004;12.120;2024-03-23T05:18:02;34.60;;;15.18;;
85318;SDS011;75722;49.004;12.120;2024-03-23T05:20:28;38.83;;;15.40;;
85318;SDS011;75722;49.004;12.120;2024-03-23T05:22:54;42.97;;;16.08;;
85318;SDS011;75722;49.004;12.120;2024-03-23T05:25:20;39.92;;;15.05;;
85318;SDS011;75722;49.004;12.120;2024-03-23T05:27:45;39.93;;;15.57;;
85318;SDS011;75722;49.004;12.120;2024-03-23T05:30:10;37.87;;;15.73;;
85318;SDS011;75722;49.004;12.120;2024-03-23T05:32:36;31.30;;;14.32;;
85318;SDS011;75722;49.004;12.120;2024-03-23T05:35:01;36.97;;;14.13;;
85318;SDS011;75722;49.004;12.120;2024-03-23T05:37:27;40.90;;;16.17;;
85318;SDS011;75722;49.004;12.120;2024-03-23T05:39:52;44.03;;;15.88;;
85318;SDS011;75722;49.004;12.120;2024-03-23T05:42:18;37.93;;;14.97;;
85318;SDS011;75722;49.004;12.120;2024-03-23T05:44:46;42.88;;;15.82;;
85318;SDS011;75722;49.004;12.120;2024-03-23T05:47:12;37.03;;;15.65;;
85318;SDS011;75722;49.004;12.120;2024-03-23T05:49:39;42.28;;;15.48;;
85318;SDS011;75722;49.004;12.120;2024-03-23T05:52:06;38.83;;;15.23;;
85318;SDS011;75722;49.004;12.120;2024-03-23T05:54:32;33.33;;;14.80;;
85318;SDS011;75722;49.004;12.120;2024-03-23T05:56:57;41.80;;;14.37;;
85318;SDS011;75722;49.004;12.120;2024-03-23T05:59:22;28.17;;;12.60;;
85318;SDS011;75722;49.004;12.120;2024-03-23T06:01:48;32.75;;;13.35;;
85318;SDS011;75722;49.004;12.120;2024-03-23T06:04:13;37.33;;;12.90;;
85318;SDS011;75722;49.004;12.120;2024-03-23T06:06:41;37.30;;;14.60;;
85318;SDS011;75722;49.004;12.120;2024-03-23T06:09:07;35.33;;;14.00;;
85318;SDS011;75722;49.004;12.120;2024-03-23T06:11:32;27.70;;;11.50;;
85318;SDS011;75722;49.004;12.120;2024-03-23T06:13:57;33.00;;;12.65;;
85318;SDS011;75722;49.004;12.120;2024-03-23T06:16:23;29.53;;;11.97;;
85318;SDS011;75722;49.004;12.120;2024-03-23T06:18:49;29.42;;;11.80;;
85318;SDS011;75722;49.004;12.120;2024-03-23T06:21:15;29.85;;;11.65;;
85318;SDS011;75722;49.004;12.120;2024-03-23T06:23:41;29.08;;;12.65;;
85318;SDS011;75722;49.004;12.120;2024-03-23T06:26:06;30.85;;;10.90;;
85318;SDS011;75722;49.004;12.120;2024-03-23T06:28:32;24.80;;;11.13;;
85318;SDS011;75722;49.004;12.120;2024-03-23T06:30:57;23.15;;;10.18;;
85318;SDS011;75722;49.004;12.120;2024-03-23T06:33:22;21.13;;;10.30;;
85318;SDS011;75722;49.004;12.120;2024-03-23T06:35:52;22.90;;;10.60;;
85318;SDS011;75722;49.004;12.120;2024-03-23T06:38:18;23.48;;;11.00;;
85318;SDS011;75722;49.004;12.120;2024-03-23T06:40:44;19.90;;;10.45;;
85318;SDS011;75722;49.004;12.120;2024-03-23T06:43:13;20.73;;;10.57;;
85318;SDS011;75722;49.004;12.120;2024-03-23T06:45:39;24.50;;;11.87;;
85318;SDS011;75722;49.004;12.120;2024-03-23T06:48:04;19.10;;;10.20;;
85318;SDS011;75722;49.004;12.120;2024-03-23T06:50:33;24.55;;;10.77;;
85318;SDS011;75722;49.004;12.120;2024-03-23T06:52:58;21.23;;;10.55;;
85318;SDS011;75722;49.004;12.120;2024-03-23T06:55:24;22.00;;;10.80;;
85318;SDS011;75722;49.004;12.120;2024-03-23T06:57:51;22.40;;;10.18;;
85318;SDS011;75722;49.004;12.120;2024-03-23T07:00:17;17.65;;;9.52;;
85318;SDS011;75722;49.004;12.120;2024-03-23T07:02:42;20.75;;;11.13;;
85318;SDS011;75722;49.004;12.120;2024-03-23T07:05:09;21.60;;;10.90;;
85318;SDS011;75722;49.004;12.120;2024-03-23T07:07:34;18.23;;;10.77;;
85318;SDS011;75722;49.004;12.120;2024-03-23T07:10:00;21.00;;;11.55;;
85318;SDS011;75722;49.004;12.120;2024-03-23T07:12:25;21.05;;;10.05;;
85318;SDS011;75722;49.004;12.120;2024-03-23T07:14:50;22.67;;;10.07;;
85318;SDS011;75722;49.004;12.120;2024-03-23T07:17:16;19.77;;;10.00;;
85318;SDS011;75722;49.004;12.120;2024-03-23T07:19:43;19.60;;;9.75;;
85318;SDS011;75722;49.004;12.120;2024-03-23T07:22:08;21.27;;;10.10;;
85318;SDS011;75722;49.004;12.120;2024-03-23T07:24:34;20.83;;;10.23;;
85318;SDS011;75722;49.004;12.120;2024-03-23T07:26:59;19.70;;;10.20;;
85318;SDS011;75722;49.004;12.120;2024-03-23T07:29:24;21.60;;;10.18;;
85318;SDS011;75722;49.004;12.120;2024-03-23T07:31:50;26.67;;;10.73;;
85318;SDS011;75722;49.004;12.120;2024-03-23T07:34:17;21.15;;;9.93;;
85318;SDS011;75722;49.004;12.120;2024-03-23T07:36:43;20.77;;;9.80;;
85318;SDS011;75722;49.004;12.120;2024-03-23T07:39:08;20.45;;;10.18;;
85318;SDS011;75722;49.004;12.120;2024-03-23T07:41:34;18.52;;;9.32;;
85318;SDS011;75722;49.004;12.120;2024-03-23T07:44:00;20.17;;;9.65;;
85318;SDS011;75722;49.004;12.120;2024-03-23T07:46:25;19.92;;;10.05;;
85318;SDS011;75722;49.004;12.120;2024-03-23T07:48:51;22.60;;;10.25;;
85318;SDS011;75722;49.004;12.120;2024-03-23T07:51:20;22.85;;;10.40;;
85318;SDS011;75722;49.004;12.120;2024-03-23T07:53:47;21.30;;;9.73;;
85318;SDS011;75722;49.004;12.120;2024-03-23T07:56:13;18.98;;;9.43;;
85318;SDS011;75722;49.004;12.120;2024-03-23T07:58:44;15.55;;;7.53;;
85318;SDS011;75722;49.004;12.120;2024-03-23T08:01:13;13.82;;;6.57;;
85318;SDS011;75722;49.004;12.120;2024-03-23T08:03:40;9.77;;;4.50;;
85318;SDS011;75722;49.004;12.120;2024-03-23T08:06:13;10.45;;;4.00;;
85318;SDS011;75722;49.004;12.120;2024-03-23T08:08:40;7.53;;;3.17;;
85318;SDS011;75722;49.004;12.120;2024-03-23T08:11:07;7.68;;;3.58;;
85318;SDS011;75722;49.004;12.120;2024-03-23T08:13:35;6.75;;;3.33;;
85318;SDS011;75722;49.004;12.120;2024-03-23T08:18:29;5.82;;;2.63;;
85318;SDS011;75722;49.004;12.120;2024-03-23T08:20:59;7.05;;;2.53;;
85318;SDS011;75722;49.004;12.120;2024-03-23T08:23:30;7.88;;;2.90;;
85318;SDS011;75722;49.004;12.120;2024-03-23T08:25:59;5.00;;;2.42;;
85318;SDS011;75722;49.004;12.120;2024-03-23T08:28:28;7.90;;;2.85;;
85318;SDS011;75722;49.004;12.120;2024-03-23T08:30:54;6.32;;;2.80;;
85318;SDS011;75722;49.004;12.120;2024-03-23T08:33:19;6.00;;;2.45;;
85318;SDS011;75722;49.004;12.120;2024-03-23T08:35:55;6.15;;;2.53;;
85318;SDS011;75722;49.004;12.120;2024-03-23T08:38:24;6.95;;;2.60;;
85318;SDS011;75722;49.004;12.120;2024-03-23T08:41:00;6.07;;;2.78;;
85318;SDS011;75722;49.004;12.120;2024-03-23T08:43:26;4.90;;;2.10;;
85318;SDS011;75722;49.004;12.120;2024-03-23T08:45:51;3.63;;;2.13;;
85318;SDS011;75722;49.004;12.120;2024-03-23T08:48:18;5.32;;;2.63;;
85318;SDS011;75722;49.004;12.120;2024-03-23T08:50:45;3.92;;;2.28;;
85318;SDS011;75722;49.004;12.120;2024-03-23T08:53:11;5.15;;;2.42;;
85318;SDS011;75722;49.004;12.120;2024-03-23T08:55:37;6.10;;;2.37;;
85318;SDS011;75722;49.004;12.120;2024-03-23T08:58:02;5.73;;;2.13;;
85318;SDS011;75722;49.004;12.120;2024-03-23T09:00:29;9.30;;;2.55;;
85318;SDS011;75722;49.004;12.120;2024-03-23T09:02:54;6.20;;;2.72;;
85318;SDS011;75722;49.004;12.120;2024-03-23T09:05:20;5.07;;;2.47;;
85318;SDS011;75722;49.004;12.120;2024-03-23T09:07:46;7.05;;;2.90;;
85318;SDS011;75722;49.004;12.120;2024-03-23T09:10:11;8.37;;;2.93;;
85318;SDS011;75722;49.004;12.120;2024-03-23T09:12:36;7.00;;;3.63;;
85318;SDS011;75722;49.004;12.120;2024-03-23T09:15:02;9.68;;;2.65;;
85318;SDS011;75722;49.004;12.120;2024-03-23T09:17:27;7.05;;;2.97;;
85318;SDS011;75722;49.004;12.120;2024-03-23T09:19:53;6.55;;;2.83;;
85318;SDS011;75722;49.004;12.120;2024-03-23T09:22:18;6.10;;;3.00;;
85318;SDS011;75722;49.004;12.120;2024-03-23T09:24:43;6.63;;;3.03;;
85318;SDS011;75722;49.004;12.120;2024-03-23T09:27:08;6.60;;;3.10;;
85318;SDS011;75722;49.004;12.120;2024-03-23T09:29:34;7.38;;;2.67;;
85318;SDS011;75722;49.004;12.120;2024-03-23T09:31:59;8.17;;;2.70;;
85318;SDS011;75722;49.004;12.120;2024-03-23T09:34:24;6.23;;;2.67;;
85318;SDS011;75722;49.004;12.120;2024-03-23T09:36:53;6.23;;;2.97;;
85318;SDS011;75722;49.004;12.120;2024-03-23T09:39:18;5.97;;;2.78;;
85318;SDS011;75722;49.004;12.120;2024-03-23T09:41:44;5.50;;;2.70;;
85318;SDS011;75722;49.004;12.120;2024-03-23T09:44:10;5.35;;;3.13;;
85318;SDS011;75722;49.004;12.120;2024-03-23T09:46:35;4.57;;;2.53;;
85318;SDS011;75722;49.004;12.120;2024-03-23T09:49:01;6.38;;;3.00;;
85318;SDS011;75722;49.004;12.120;2024-03-23T09:51:29;3.35;;;1.73;;
85318;SDS011;75722;49.004;12.120;2024-03-23T09:53:55;5.07;;;2.63;;
85318;SDS011;75722;49.004;12.120;2024-03-23T09:56:21;5.32;;;2.83;;
85318;SDS011;75722;49.004;12.120;2024-03-23T09:58:47;6.53;;;2.63;;
85318;SDS011;75722;49.004;12.120;2024-03-23T10:01:12;4.57;;;2.22;;
85318;SDS011;75722;49.004;12.120;2024-03-23T10:03:46;6.63;;;2.70;;
85318;SDS011;75722;49.004;12.120;2024-03-23T10:06:12;5.50;;;2.50;;
85318;SDS011;75722;49.004;12.120;2024-03-23T10:08:37;6.25;;;2.50;;
85318;SDS011;75722;49.004;12.120;2024-03-23T10:11:13;3.60;;;1.75;;
85318;SDS011;75722;49.004;12.120;2024-03-23T10:13:41;4.15;;;1.42;;
85318;SDS011;75722;49.004;12.120;2024-03-23T10:16:07;2.85;;;1.80;;
85318;SDS011;75722;49.004;12.120;2024-03-23T10:18:36;2.88;;;1.92;;
85318;SDS011;75722;49.004;12.120;2024-03-23T10:31:18;2.42;;;1.55;;
85318;SDS011;75722;49.004;12.120;2024-03-23T10:33:47;2.70;;;1.60;;
85318;SDS011;75722;49.004;12.120;2024-03-23T10:36:13;2.42;;;1.63;;
85318;SDS011;75722;49.004;12.120;2024-03-23T10:38:39;3.08;;;1.30;;
85318;SDS011;75722;49.004;12.120;2024-03-23T10:41:07;2.45;;;1.35;;
85318;SDS011;75722;49.004;12.120;2024-03-23T10:43:34;2.55;;;1.20;;
85318;SDS011;75722;49.004;12.120;2024-03-23T10:46:01;2.00;;;1.50;;
85318;SDS011;75722;49.004;12.120;2024-03-23T10:48:26;1.40;;;1.23;;
85318;SDS011;75722;49.004;12.120;2024-03-23T10:50:52;1.30;;;0.90;;
85318;SDS011;75722;49.004;12.120;2024-03-23T10:53:18;1.30;;;0.90;;
85318;SDS011;75722;49.004;12.120;2024-03-23T10:55:46;1.58;;;1.13;;
85318;SDS011;75722;49.004;12.120;2024-03-23T10:58:11;0.77;;;0.60;;
85318;SDS011;75722;49.004;12.120;2024-03-23T11:00:37;1.77;;;0.93;;
85318;SDS011;75722;49.004;12.120;2024-03-23T11:05:57;1.52;;;1.15;;
85318;SDS011;75722;49.004;12.120;2024-03-23T11:08:36;1.35;;;1.05;;
85318;SDS011;75722;49.004;12.120;2024-03-23T11:11:18;1.70;;;1.20;;
85318;SDS011;75722;49.004;12.120;2024-03-23T11:13:44;2.50;;;1.20;;
85318;SDS011;75722;49.004;12.120;2024-03-23T11:16:14;3.67;;;1.42;;
85318;SDS011;75722;49.004;12.120;2024-03-23T11:21:55;1.15;;;0.90;;
85318;SDS011;75722;49.004;12.120;2024-03-23T11:24:21;1.45;;;0.93;;
85318;SDS011;75722;49.004;12.120;2024-03-23T11:26:47;1.80;;;1.13;;
85318;SDS011;75722;49.004;12.120;2024-03-23T11:29:14;2.40;;;1.65;;
85318;SDS011;75722;49.004;12.120;2024-03-23T11:34:12;1.25;;;1.10;;
85318;SDS011;75722;49.004;12.120;2024-03-23T11:36:38;3.80;;;1.23;;
85318;SDS011;75722;49.004;12.120;2024-03-23T11:39:15;1.50;;;0.90;;
85318;SDS011;75722;49.004;12.120;2024-03-23T11:41:48;2.67;;;1.33;;
85318;SDS011;75722;49.004;12.120;2024-03-23T11:44:15;2.95;;;1.10;;
85318;SDS011;75722;49.004;12.120;2024-03-23T11:46:41;1.65;;;1.23;;
85318;SDS011;75722;49.004;12.120;2024-03-23T11:49:06;4.33;;;1.43;;
85318;SDS011;75722;49.004;12.120;2024-03-23T11:51:31;2.47;;;1.35;;
85318;SDS011;75722;49.004;12.120;2024-03-23T11:54:07;3.38;;;1.55;;
85318;SDS011;75722;49.004;12.120;2024-03-23T11:56:33;1.83;;;1.23;;
85318;SDS011;75722;49.004;12.120;2024-03-23T11:58:58;3.87;;;1.63;;
85318;SDS011;75722;49.004;12.120;2024-03-23T12:01:23;3.00;;;1.60;;
85318;SDS011;75722;49.004;12.120;2024-03-23T12:03:49;2.25;;;1.10;;
85318;SDS011;75722;49.004;12.120;2024-03-23T12:06:19;3.57;;;1.50;;
85318;SDS011;75722;49.004;12.120;2024-03-23T12:08:44;1.50;;;1.20;;
85318;SDS011;75722;49.004;12.120;2024-03-23T12:11:13;1.77;;;0.90;;
85318;SDS011;75722;49.004;12.120;2024-03-23T12:13:41;4.25;;;1.35;;
85318;SDS011;75722;49.004;12.120;2024-03-23T12:18:37;1.80;;;1.02;;
85318;SDS011;75722;49.004;12.120;2024-03-23T12:21:03;3.65;;;1.20;;
85318;SDS011;75722;49.004;12.120;2024-03-23T12:23:29;2.90;;;1.05;;
85318;SDS011;75722;49.004;12.120;2024-03-23T12:25:54;4.60;;;1.27;;
85318;SDS011;75722;49.004;12.120;2024-03-23T12:28:20;1.90;;;1.00;;
85318;SDS011;75722;49.004;12.120;2024-03-23T12:30:45;3.13;;;1.20;;
85318;SDS011;75722;49.004;12.120;2024-03-23T12:33:10;3.80;;;1.47;;
85318;SDS011;75722;49.004;12.120;2024-03-23T12:35:36;3.95;;;1.58;;
85318;SDS011;75722;49.004;12.120;2024-03-23T12:38:01;2.03;;;1.25;;
85318;SDS011;75722;49.004;12.120;2024-03-23T12:40:26;4.88;;;1.60;;
85318;SDS011;75722;49.004;12.120;2024-03-23T12:42:53;2.40;;;1.65;;
85318;SDS011;75722;49.004;12.120;2024-03-23T12:45:18;3.72;;;1.45;;
85318;SDS011;75722;49.004;12.120;2024-03-23T12:47:43;3.67;;;1.60;;
85318;SDS011;75722;49.004;12.120;2024-03-23T12:50:09;3.72;;;1.30;;
85318;SDS011;75722;49.004;12.120;2024-03-23T12:52:35;3.55;;;1.10;;
85318;SDS011;75722;49.004;12.120;2024-03-23T12:55:01;5.40;;;1.25;;
85318;SDS011;75722;49.004;12.120;2024-03-23T12:57:26;7.38;;;1.55;;
85318;SDS011;75722;49.004;12.120;2024-03-23T12:59:52;3.50;;;1.67;;
85318;SDS011;75722;49.004;12.120;2024-03-23T13:02:21;4.65;;;1.63;;
85318;SDS011;75722;49.004;12.120;2024-03-23T13:04:50;2.95;;;1.70;;
85318;SDS011;75722;49.004;12.120;2024-03-23T13:07:17;4.88;;;1.88;;
85318;SDS011;75722;49.004;12.120;2024-03-23T13:09:43;4.22;;;1.63;;
85318;SDS011;75722;49.004;12.120;2024-03-23T13:12:09;3.65;;;1.65;;
85318;SDS011;75722;49.004;12.120;2024-03-23T13:14:34;3.45;;;1.48;;
85318;SDS011;75722;49.004;12.120;2024-03-23T13:17:00;4.50;;;1.63;;
85318;SDS011;75722;49.004;12.120;2024-03-23T13:19:26;4.68;;;1.83;;
85318;SDS011;75722;49.004;12.120;2024-03-23T13:21:53;4.85;;;1.60;;
85318;SDS011;75722;49.004;12.120;2024-03-23T13:24:23;5.75;;;1.95;;
85318;SDS011;75722;49.004;12.120;2024-03-23T13:26:49;2.33;;;1.35;;
85318;SDS011;75722;49.004;12.120;2024-03-23T13:29:21;5.22;;;1.50;;
85318;SDS011;75722;49.004;12.120;2024-03-23T13:31:47;3.70;;;1.70;;
85318;SDS011;75722;49.004;12.120;2024-03-23T13:34:13;3.45;;;1.33;;
85318;SDS011;75722;49.004;12.120;2024-03-23T13:36:45;5.70;;;1.80;;
85318;SDS011;75722;49.004;12.120;2024-03-23T13:39:11;5.03;;;1.60;;
85318;SDS011;75722;49.004;12.120;2024-03-23T13:41:41;5.00;;;1.60;;
85318;SDS011;75722;49.004;12.120;2024-03-23T13:44:11;3.67;;;1.67;;
85318;SDS011;75722;49.004;12.120;2024-03-23T13:46:37;5.57;;;1.80;;
85318;SDS011;75722;49.004;12.120;2024-03-23T13:49:04;5.47;;;1.60;;
85318;SDS011;75722;49.004;12.120;2024-03-23T13:51:30;3.85;;;1.73;;
85318;SDS011;75722;49.004;12.120;2024-03-23T13:53:55;2.97;;;1.15;;
85318;SDS011;75722;49.004;12.120;2024-03-23T13:56:24;5.25;;;2.10;;
85318;SDS011;75722;49.004;12.120;2024-03-23T13:58:49;3.83;;;1.58;;
85318;SDS011;75722;49.004;12.120;2024-03-23T14:01:15;2.50;;;1.48;;
85318;SDS011;75722;49.004;12.120;2024-03-23T14:03:41;6.57;;;2.28;;
85318;SDS011;75722;49.004;12.120;2024-03-23T14:06:07;5.57;;;2.38;;
85318;SDS011;75722;49.004;12.120;2024-03-23T14:08:34;7.10;;;1.98;;
85318;SDS011;75722;49.004;12.120;2024-03-23T14:11:01;5.63;;;1.92;;
85318;SDS011;75722;49.004;12.120;2024-03-23T14:13:28;6.03;;;1.80;;
85318;SDS011;75722;49.004;12.120;2024-03-23T14:15:53;10.52;;;2.55;;
85318;SDS011;75722;49.004;12.120;2024-03-23T14:18:19;5.72;;;2.38;;
85318;SDS011;75722;49.004;12.120;2024-03-23T14:20:44;4.37;;;2.17;;
85318;SDS011;75722;49.004;12.120;2024-03-23T14:23:09;4.57;;;1.63;;
85318;SDS011;75722;49.004;12.120;2024-03-23T14:25:35;7.53;;;1.67;;
85318;SDS011;75722;49.004;12.120;2024-03-23T14:28:00;6.33;;;2.00;;
85318;SDS011;75722;49.004;12.120;2024-03-23T14:30:25;4.33;;;2.23;;
85318;SDS011;75722;49.004;12.120;2024-03-23T14:32:51;3.03;;;1.80;;
85318;SDS011;75722;49.004;12.120;2024-03-23T14:35:16;8.88;;;2.40;;
85318;SDS011;75722;49.004;12.120;2024-03-23T14:37:42;7.55;;;2.20;;
85318;SDS011;75722;49.004;12.120;2024-03-23T14:40:07;8.20;;;2.15;;
85318;SDS011;75722;49.004;12.120;2024-03-23T14:42:33;4.10;;;2.22;;
85318;SDS011;75722;49.004;12.120;2024-03-23T14:44:58;8.75;;;2.25;;
85318;SDS011;75722;49.004;12.120;2024-03-23T14:47:24;4.00;;;1.88;;
85318;SDS011;75722;49.004;12.120;2024-03-23T14:49:49;5.32;;;2.13;;
85318;SDS011;75722;49.004;12.120;2024-03-23T14:52:17;7.50;;;2.63;;
85318;SDS011;75722;49.004;12.120;2024-03-23T14:54:43;4.82;;;1.75;;
85318;SDS011;75722;49.004;12.120;2024-03-23T14:57:09;4.78;;;1.83;;
85318;SDS011;75722;49.004;12.120;2024-03-23T14:59:35;7.95;;;1.90;;
85318;SDS011;75722;49.004;12.120;2024-03-23T15:02:00;4.45;;;2.00;;
85318;SDS011;75722;49.004;12.120;2024-03-23T15:04:26;3.90;;;2.05;;
85318;SDS011;75722;49.004;12.120;2024-03-23T15:06:51;6.13;;;1.90;;
85318;SDS011;75722;49.004;12.120;2024-03-23T15:09:16;10.40;;;2.00;;
85318;SDS011;75722;49.004;12.120;2024-03-23T15:11:43;5.75;;;1.83;;
85318;SDS011;75722;49.004;12.120;2024-03-23T15:14:08;10.18;;;2.47;;
85318;SDS011;75722;49.004;12.120;2024-03-23T15:16:35;8.77;;;1.88;;
85318;SDS011;75722;49.004;12.120;2024-03-23T15:19:00;7.57;;;2.10;;
85318;SDS011;75722;49.004;12.120;2024-03-23T15:21:26;2.75;;;1.50;;
85318;SDS011;75722;49.004;12.120;2024-03-23T15:23:51;7.90;;;2.27;;
85318;SDS011;75722;49.004;12.120;2024-03-23T15:26:16;8.70;;;2.30;;
85318;SDS011;75722;49.004;12.120;2024-03-23T15:28:42;4.45;;;1.30;;
85318;SDS011;75722;49.004;12.120;2024-03-23T15:31:22;7.57;;;2.40;;
85318;SDS011;75722;49.004;12.120;2024-03-23T15:33:48;4.88;;;2.08;;